createdAt,value
2018-02-23T00:00:30.709Z,14.07
2018-02-23T00:02:58.989Z,13.70
2018-02-23T00:05:26.617Z,17.27
2018-02-23T00:07:54.136Z,13.20
2018-02-23T00:10:21.663Z,21.35
2018-02-23T00:12:49.931Z,14.35
2018-02-23T00:15:18.263Z,14.63
2018-02-23T00:17:45.873Z,13.27
2018-02-23T00:20:14.144Z,19.08
2018-02-23T00:22:42.454Z,18.83
2018-02-23T00:25:09.994Z,15.80
2018-02-23T00:27:37.526Z,16.48
2018-02-23T00:30:05.055Z,17.67
2018-02-23T00:32:32.580Z,14.65
2018-02-23T00:35:00.235Z,20.60
2018-02-23T00:37:28.130Z,21.35
2018-02-23T00:39:55.640Z,19.08
2018-02-23T00:42:23.142Z,17.42
2018-02-23T00:44:50.651Z,18.50
2018-02-23T00:47:18.170Z,22.33
2018-02-23T00:49:45.698Z,20.52
2018-02-23T00:52:13.979Z,20.98
2018-02-23T00:54:42.253Z,22.00
2018-02-23T00:57:10.563Z,20.08
2018-02-23T00:59:38.302Z,21.90
2018-02-23T01:02:05.830Z,19.75
2018-02-23T01:04:33.431Z,21.80
2018-02-23T01:07:01.833Z,20.20
2018-02-23T01:09:29.789Z,20.95
2018-02-23T01:11:57.326Z,21.37
2018-02-23T01:14:25.724Z,18.90
2018-02-23T01:16:53.237Z,19.10
2018-02-23T01:19:20.774Z,21.40
2018-02-23T01:21:48.485Z,19.20
2018-02-23T01:24:16.178Z,27.50
2018-02-23T01:26:43.699Z,22.20
2018-02-23T01:29:12.088Z,18.50
2018-02-23T01:31:39.598Z,19.33
2018-02-23T01:34:07.140Z,17.48
2018-02-23T01:36:34.668Z,19.12
2018-02-23T01:39:02.219Z,18.70
2018-02-23T01:41:30.512Z,16.83
2018-02-23T01:43:58.063Z,17.08
2018-02-23T01:46:25.626Z,19.85
2018-02-23T01:48:53.920Z,15.68
2018-02-23T01:51:21.521Z,20.70
2018-02-23T01:53:49.040Z,18.87
2018-02-23T01:56:16.571Z,25.52
2018-02-23T01:58:44.154Z,16.00
2018-02-23T02:01:11.686Z,18.90
2018-02-23T02:03:39.252Z,20.12
2018-02-23T02:06:06.790Z,20.70
2018-02-23T02:08:35.816Z,16.75
2018-02-23T02:11:04.215Z,18.02
2018-02-23T02:13:31.866Z,17.65
2018-02-23T02:15:59.381Z,15.65
2018-02-23T02:18:27.000Z,17.95
2018-02-23T02:20:54.553Z,22.67
2018-02-23T02:23:22.082Z,20.62
2018-02-23T02:25:49.759Z,20.48
2018-02-23T02:28:17.276Z,21.77
2018-02-23T02:30:44.887Z,21.92
2018-02-23T02:33:12.451Z,17.55
2018-02-23T02:35:39.972Z,18.90
2018-02-23T02:38:07.491Z,21.05
2018-02-23T02:40:35.020Z,21.87
2018-02-23T02:43:03.438Z,23.83
2018-02-23T02:45:30.942Z,18.95
2018-02-23T02:47:59.230Z,19.48
2018-02-23T02:50:27.538Z,19.55
2018-02-23T02:52:55.051Z,23.65
2018-02-23T02:55:23.340Z,23.52
2018-02-23T02:57:50.851Z,20.58
2018-02-23T03:00:18.359Z,21.55
2018-02-23T03:02:45.891Z,23.77
2018-02-23T03:05:13.416Z,20.02
2018-02-23T03:07:40.928Z,23.30
2018-02-23T03:10:09.242Z,19.48
2018-02-23T03:12:36.982Z,19.62
2018-02-23T03:15:04.537Z,24.35
2018-02-23T03:17:32.819Z,20.30
2018-02-23T03:20:01.226Z,27.30
2018-02-23T03:22:28.744Z,23.95
2018-02-23T03:24:57.049Z,21.37
2018-02-23T03:27:24.571Z,22.02
2018-02-23T03:29:52.087Z,21.92
2018-02-23T03:32:19.599Z,21.62
2018-02-23T03:34:47.896Z,28.62
2018-02-23T03:37:15.399Z,21.33
2018-02-23T03:39:42.914Z,22.15
2018-02-23T03:42:10.438Z,23.60
2018-02-23T03:44:37.958Z,22.75
2018-02-23T03:47:05.492Z,24.55
2018-02-23T03:49:33.053Z,23.60
2018-02-23T03:52:01.339Z,22.35
2018-02-23T03:54:28.857Z,20.80
2018-02-23T03:56:56.450Z,24.60
2018-02-23T03:59:23.958Z,27.75
2018-02-23T04:01:51.488Z,21.87
2018-02-23T04:04:19.083Z,30.25
2018-02-23T04:06:46.631Z,23.65
2018-02-23T04:09:14.129Z,34.53
2018-02-23T04:11:42.433Z,25.42
2018-02-23T04:14:09.939Z,27.17
2018-02-23T04:16:37.719Z,29.73
2018-02-23T04:19:05.237Z,27.62
2018-02-23T04:21:32.774Z,24.85
2018-02-23T04:24:00.274Z,29.00
2018-02-23T04:26:27.930Z,24.83
2018-02-23T04:28:55.456Z,28.30
2018-02-23T04:31:22.987Z,26.73
2018-02-23T04:33:50.761Z,34.80
2018-02-23T04:36:19.060Z,37.53
2018-02-23T04:38:46.580Z,30.42
2018-02-23T04:41:14.115Z,33.95
2018-02-23T04:43:41.657Z,36.85
2018-02-23T04:46:09.162Z,38.40
2018-02-23T04:48:36.879Z,32.70
2018-02-23T04:51:04.401Z,33.80
2018-02-23T04:53:32.680Z,36.00
2018-02-23T04:56:00.996Z,35.42
2018-02-23T04:58:28.558Z,34.88
2018-02-23T05:00:56.137Z,32.70
2018-02-23T05:03:23.692Z,28.70
2018-02-23T05:05:52.032Z,35.83
2018-02-23T05:08:19.561Z,41.33
2018-02-23T05:10:47.244Z,35.92
2018-02-23T05:13:15.589Z,39.40
2018-02-23T05:15:43.105Z,40.60
2018-02-23T05:18:10.689Z,39.67
2018-02-23T05:20:38.222Z,37.05
2018-02-23T05:23:05.741Z,38.67
2018-02-23T05:25:33.270Z,36.15
2018-02-23T05:28:00.828Z,34.42
2018-02-23T05:30:28.358Z,40.97
2018-02-23T05:32:55.864Z,49.33
2018-02-23T05:35:23.427Z,38.70
2018-02-23T05:37:50.977Z,46.72
2018-02-23T05:40:18.490Z,49.28
2018-02-23T05:42:46.003Z,42.25
2018-02-23T05:45:13.527Z,34.88
2018-02-23T05:47:41.050Z,39.00
2018-02-23T05:50:09.346Z,42.97
2018-02-23T05:52:36.879Z,40.17
2018-02-23T05:55:04.400Z,44.08
2018-02-23T05:57:31.914Z,43.08
2018-02-23T06:00:00.216Z,42.47
2018-02-23T06:02:27.788Z,35.80
2018-02-23T06:04:55.301Z,40.30
2018-02-23T06:07:23.590Z,43.35
2018-02-23T06:09:52.473Z,45.50
2018-02-23T06:12:20.781Z,48.15
2018-02-23T06:14:48.502Z,43.35
2018-02-23T06:17:21.728Z,46.97
2018-02-23T06:19:54.979Z,42.50
2018-02-23T06:22:22.491Z,42.90
2018-02-23T06:24:50.067Z,43.58
2018-02-23T06:27:17.580Z,37.72
2018-02-23T06:29:45.929Z,44.70
2018-02-23T06:32:13.480Z,48.50
2018-02-23T06:34:40.991Z,42.53
2018-02-23T06:37:08.698Z,47.90
2018-02-23T06:39:36.211Z,43.35
2018-02-23T06:42:03.841Z,47.25
2018-02-23T06:44:31.356Z,42.20
2018-02-23T06:47:08.711Z,38.60
2018-02-23T06:49:37.016Z,39.30
2018-02-23T06:52:04.537Z,40.08
2018-02-23T06:54:32.056Z,39.38
2018-02-23T06:56:59.578Z,40.25
2018-02-23T06:59:27.117Z,47.72
2018-02-23T07:01:54.626Z,53.15
2018-02-23T07:04:22.203Z,48.72
2018-02-23T07:06:49.774Z,39.53
2018-02-23T07:09:17.308Z,37.83
2018-02-23T07:11:44.820Z,38.03
2018-02-23T07:14:12.413Z,35.63
2018-02-23T07:16:39.927Z,37.58
2018-02-23T07:19:07.455Z,44.30
2018-02-23T07:21:34.990Z,40.60
2018-02-23T07:24:02.569Z,43.70
2018-02-23T07:26:33.213Z,43.78
2018-02-23T07:29:00.827Z,30.62
2018-02-23T07:31:28.359Z,43.45
2018-02-23T07:33:56.050Z,42.88
2018-02-23T07:36:24.403Z,41.90
2018-02-23T07:38:51.915Z,40.08
2018-02-23T07:41:19.443Z,49.28
2018-02-23T07:43:46.987Z,42.83
2018-02-23T07:46:15.408Z,43.63
2018-02-23T07:48:42.946Z,38.67
2018-02-23T07:51:11.284Z,47.13
2018-02-23T07:53:38.819Z,42.85
2018-02-23T07:56:06.404Z,40.97
2018-02-23T07:58:33.933Z,46.17
2018-02-23T08:01:01.454Z,42.50
2018-02-23T08:03:29.742Z,39.22
2018-02-23T08:05:58.143Z,48.25
2018-02-23T08:08:25.665Z,51.85
2018-02-23T08:10:54.041Z,44.30
2018-02-23T08:13:22.517Z,45.03
2018-02-23T08:15:50.222Z,43.85
2018-02-23T08:18:17.745Z,43.20
2018-02-23T08:20:46.073Z,39.13
2018-02-23T08:23:13.591Z,39.65
2018-02-23T08:25:41.103Z,41.13
2018-02-23T08:28:08.635Z,39.70
2018-02-23T08:30:36.153Z,49.25
2018-02-23T08:33:03.708Z,43.30
2018-02-23T08:35:31.216Z,42.75
2018-02-23T08:37:58.825Z,41.10
2018-02-23T08:40:26.348Z,48.15
2018-02-23T08:42:53.922Z,52.88
2018-02-23T08:45:21.458Z,41.22
2018-02-23T08:47:49.080Z,50.15
2018-02-23T08:50:17.391Z,46.63
2018-02-23T08:52:44.980Z,42.83
2018-02-23T08:55:12.824Z,40.78
2018-02-23T08:57:40.336Z,45.55
2018-02-23T09:13:31.293Z,40.22
2018-02-23T09:15:58.841Z,43.63
2018-02-23T09:18:27.148Z,49.53
2018-02-23T09:20:54.680Z,42.85
2018-02-23T09:23:22.203Z,35.42
2018-02-23T09:25:49.732Z,40.63
2018-02-23T09:28:17.329Z,34.40
2018-02-23T09:30:44.901Z,41.37
2018-02-23T09:33:12.433Z,34.65
2018-02-23T09:35:39.975Z,36.65
2018-02-23T09:38:07.565Z,34.60
2018-02-23T09:40:35.159Z,33.85
2018-02-23T09:43:02.675Z,31.75
2018-02-23T09:45:30.190Z,30.08
2018-02-23T09:47:58.468Z,27.15
2018-02-23T09:50:25.985Z,29.50
2018-02-23T09:52:53.529Z,25.25
2018-02-23T09:55:21.063Z,34.40
2018-02-23T09:57:48.606Z,40.12
2018-02-23T10:00:16.134Z,23.98
2018-02-23T10:02:43.654Z,26.17
2018-02-23T10:05:11.198Z,34.47
2018-02-23T10:07:38.742Z,28.48
2018-02-23T10:10:07.019Z,26.87
2018-02-23T10:12:35.325Z,31.95
2018-02-23T10:15:02.888Z,30.02
2018-02-23T10:17:30.608Z,26.80
2018-02-23T10:19:58.899Z,28.92
2018-02-23T10:22:27.202Z,30.35
2018-02-23T10:24:54.800Z,28.80
2018-02-23T10:27:22.322Z,27.80
2018-02-23T10:29:49.837Z,27.75
2018-02-23T10:32:17.354Z,26.98
2018-02-23T10:34:44.913Z,26.70
2018-02-23T10:37:12.522Z,21.37
2018-02-23T10:39:40.800Z,28.98
2018-02-23T10:42:09.111Z,23.77
2018-02-23T10:44:36.626Z,23.25
2018-02-23T10:47:04.134Z,22.80
2018-02-23T10:49:31.667Z,21.58
2018-02-23T10:51:59.967Z,22.60
2018-02-23T10:54:27.499Z,24.25
2018-02-23T10:56:55.027Z,22.48
2018-02-23T10:59:22.545Z,24.15
2018-02-23T11:01:50.065Z,28.12
2018-02-23T11:04:17.608Z,24.70
2018-02-23T11:06:45.123Z,22.90
2018-02-23T11:09:12.619Z,25.30
2018-02-23T11:28:56.499Z,30.35
2018-02-23T11:31:24.010Z,21.85
2018-02-23T11:33:51.571Z,20.75
2018-02-23T11:36:19.091Z,22.70
2018-02-23T11:38:47.380Z,24.63
2018-02-23T11:41:14.912Z,23.05
2018-02-23T11:43:42.438Z,25.62
2018-02-23T11:46:09.971Z,22.85
2018-02-23T11:48:37.542Z,25.88
2018-02-23T11:51:05.124Z,21.98
2018-02-23T11:53:32.638Z,23.10
2018-02-23T11:56:00.198Z,23.10
2018-02-23T11:58:27.750Z,25.73
2018-02-23T12:00:55.299Z,22.60
2018-02-23T12:03:22.825Z,24.65
2018-02-23T12:05:50.342Z,25.80
2018-02-23T12:08:17.863Z,27.30
2018-02-23T12:10:45.359Z,23.80
2018-02-23T12:13:12.872Z,24.05
2018-02-23T12:15:40.400Z,27.33
2018-02-23T12:18:07.923Z,24.48
2018-02-23T12:20:36.196Z,22.15
2018-02-23T12:23:04.512Z,21.83
2018-02-23T12:25:32.113Z,27.45
2018-02-23T12:27:59.636Z,24.45
2018-02-23T12:30:27.212Z,25.12
2018-02-23T12:32:54.737Z,25.25
2018-02-23T12:35:22.296Z,23.92
2018-02-23T12:37:49.809Z,21.30
2018-02-23T12:40:17.339Z,26.83
2018-02-23T12:42:44.893Z,25.55
2018-02-23T12:45:12.423Z,23.55
2018-02-23T12:47:40.727Z,22.67
2018-02-23T12:50:08.261Z,22.50
2018-02-23T12:52:35.848Z,27.42
2018-02-23T12:55:03.375Z,24.08
2018-02-23T12:57:30.918Z,23.42
2018-02-23T12:59:58.450Z,24.33
2018-02-23T13:02:25.979Z,24.42
2018-02-23T13:04:53.559Z,22.83
2018-02-23T13:07:21.079Z,26.52
2018-02-23T13:09:48.594Z,27.37
2018-02-23T13:12:16.161Z,28.23
2018-02-23T13:14:49.398Z,27.55
2018-02-23T13:17:16.905Z,25.77
2018-02-23T13:19:44.403Z,26.60
2018-02-23T13:22:12.702Z,29.50
2018-02-23T13:24:40.215Z,28.77
2018-02-23T13:27:13.534Z,28.00
2018-02-23T13:29:42.207Z,30.23
2018-02-23T13:32:09.740Z,29.20
2018-02-23T13:34:37.269Z,26.65
2018-02-23T13:37:04.822Z,26.65
2018-02-23T13:39:32.361Z,27.52
2018-02-23T13:41:59.877Z,31.55
2018-02-23T13:44:27.387Z,23.45
2018-02-23T13:46:54.884Z,24.65
2018-02-23T13:49:22.393Z,26.85
2018-02-23T13:51:49.921Z,25.42
2018-02-23T13:54:22.998Z,24.92
2018-02-23T13:56:50.509Z,22.60
2018-02-23T13:59:18.022Z,23.35
2018-02-23T14:01:45.526Z,28.60
2018-02-23T14:04:13.845Z,22.13
2018-02-23T14:06:41.382Z,19.45
2018-02-23T14:09:08.912Z,19.95
2018-02-23T14:11:36.540Z,25.08
2018-02-23T14:14:04.044Z,18.10
2018-02-23T14:16:32.339Z,21.40
2018-02-23T14:18:59.855Z,19.92
2018-02-23T14:21:27.368Z,20.48
2018-02-23T14:23:54.881Z,23.15
2018-02-23T14:26:23.170Z,17.25
2018-02-23T14:28:50.746Z,24.25
2018-02-23T14:31:18.255Z,21.77
2018-02-23T14:33:45.831Z,21.48
2018-02-23T14:36:13.344Z,19.00
2018-02-23T14:38:40.878Z,17.90
2018-02-23T14:41:09.140Z,24.02
2018-02-23T14:43:37.423Z,25.15
2018-02-23T14:46:05.714Z,20.98
2018-02-23T14:48:45.144Z,19.90
2018-02-23T14:51:12.671Z,23.20
2018-02-23T14:53:40.204Z,20.48
2018-02-23T14:56:07.710Z,22.98
2018-02-23T14:58:35.249Z,20.15
2018-02-23T15:01:02.764Z,17.08
2018-02-23T15:03:30.287Z,24.98
2018-02-23T15:05:57.802Z,20.25
2018-02-23T15:08:25.341Z,23.75
2018-02-23T15:10:52.915Z,26.60
2018-02-23T15:13:20.442Z,21.20
2018-02-23T15:15:48.823Z,27.15
2018-02-23T15:18:16.344Z,21.12
2018-02-23T15:20:43.852Z,23.75
2018-02-23T15:23:11.365Z,23.52
2018-02-23T15:25:40.401Z,23.85
2018-02-23T15:28:08.042Z,28.48
2018-02-23T15:30:48.071Z,22.60
2018-02-23T15:33:15.658Z,21.55
2018-02-23T15:35:44.064Z,30.23
2018-02-23T15:38:11.628Z,24.15
2018-02-23T15:40:39.162Z,28.58
2018-02-23T15:43:06.745Z,25.35
2018-02-23T15:45:34.287Z,22.35
2018-02-23T15:48:07.396Z,20.12
2018-02-23T15:50:40.728Z,24.95
2018-02-23T15:53:08.268Z,20.88
2018-02-23T15:55:35.793Z,23.62
2018-02-23T15:58:06.911Z,23.08
2018-02-23T16:00:34.435Z,23.67
2018-02-23T16:03:01.941Z,24.55
2018-02-23T16:05:30.235Z,26.27
2018-02-23T16:07:58.546Z,25.12
2018-02-23T16:10:26.117Z,19.17
2018-02-23T16:12:53.662Z,16.87
2018-02-23T16:15:21.196Z,22.33
2018-02-23T16:17:48.742Z,15.07
2018-02-23T16:20:17.025Z,17.42
2018-02-23T16:22:45.298Z,16.60
2018-02-23T16:25:13.580Z,17.12
2018-02-23T16:27:41.881Z,17.65
2018-02-23T16:30:09.408Z,19.92
2018-02-23T16:32:36.966Z,17.80
2018-02-23T16:35:05.243Z,18.52
2018-02-23T16:37:33.530Z,18.60
2018-02-23T16:40:01.804Z,16.40
2018-02-23T16:42:30.121Z,18.48
2018-02-23T16:44:57.643Z,12.27
2018-02-23T16:47:25.176Z,16.73
2018-02-23T16:49:52.692Z,13.60
2018-02-23T16:52:20.211Z,14.77
2018-02-23T16:54:47.710Z,13.25
2018-02-23T16:57:15.223Z,14.30
2018-02-23T16:59:42.738Z,18.20
2018-02-23T17:02:10.246Z,18.37
2018-02-23T17:04:37.822Z,21.85
2018-02-23T17:07:05.356Z,14.75
2018-02-23T17:09:32.873Z,14.40
2018-02-23T17:12:00.387Z,17.15
2018-02-23T17:14:28.723Z,15.35
2018-02-23T17:16:56.332Z,22.52
2018-02-23T17:19:23.881Z,15.07
2018-02-23T17:21:51.455Z,18.08
2018-02-23T17:24:19.728Z,17.65
2018-02-23T17:26:48.011Z,17.92
2018-02-23T17:29:16.303Z,15.07
2018-02-23T17:49:04.415Z,18.10
2018-02-23T17:51:32.046Z,18.52
2018-02-23T17:53:59.586Z,17.12
2018-02-23T17:56:27.109Z,14.27
2018-02-23T17:58:54.622Z,14.10
2018-02-23T18:01:22.139Z,17.50
2018-02-23T18:03:49.654Z,16.10
2018-02-23T18:06:17.202Z,15.82
2018-02-23T18:08:44.728Z,17.42
2018-02-23T18:11:12.248Z,14.80
2018-02-23T18:13:39.831Z,20.17
2018-02-23T18:16:07.351Z,19.55
2018-02-23T18:18:34.875Z,18.12
2018-02-23T18:21:02.408Z,24.37
2018-02-23T18:23:29.934Z,15.98
2018-02-23T18:25:59.853Z,16.60
2018-02-23T18:28:29.035Z,19.65
2018-02-23T18:30:56.566Z,16.58
2018-02-23T18:33:24.088Z,16.92
2018-02-23T18:35:51.616Z,18.30
2018-02-23T18:38:19.143Z,12.70
2018-02-23T18:40:46.672Z,16.80
2018-02-23T18:43:14.198Z,16.08
2018-02-23T18:45:41.716Z,20.08
2018-02-23T18:48:09.247Z,21.90
2018-02-23T18:50:36.769Z,19.33
2018-02-23T18:53:04.303Z,34.00
2018-02-23T18:55:31.853Z,15.40
2018-02-23T18:58:00.136Z,15.43
2018-02-23T19:00:27.672Z,15.63
2018-02-23T19:02:55.237Z,22.40
2018-02-23T19:05:26.025Z,12.93
2018-02-23T19:07:53.553Z,14.35
2018-02-23T19:10:21.138Z,15.45
2018-02-23T19:12:48.689Z,16.00
2018-02-23T19:15:16.211Z,15.02
2018-02-23T19:17:44.569Z,17.90
2018-02-23T19:20:12.091Z,16.05
2018-02-23T19:22:39.704Z,14.25
2018-02-23T19:25:07.235Z,18.25
2018-02-23T19:27:34.765Z,16.70
2018-02-23T19:30:02.331Z,15.43
2018-02-23T19:32:29.888Z,20.67
2018-02-23T19:34:57.415Z,16.42
2018-02-23T19:37:24.935Z,18.58
2018-02-23T19:39:52.612Z,16.02
2018-02-23T19:42:20.151Z,14.30
2018-02-23T19:44:47.666Z,17.45
2018-02-23T19:47:15.207Z,13.70
2018-02-23T19:49:43.518Z,18.20
2018-02-23T19:52:11.050Z,18.73
2018-02-23T19:54:39.297Z,15.50
2018-02-23T19:57:10.633Z,19.25
2018-02-23T19:59:38.180Z,15.90
2018-02-23T20:02:08.525Z,15.82
2018-02-23T20:04:36.075Z,21.05
2018-02-23T20:07:12.774Z,14.70
2018-02-23T20:09:40.367Z,16.73
2018-02-23T20:12:07.900Z,19.95
2018-02-23T20:14:35.455Z,18.73
2018-02-23T20:17:02.986Z,21.33
2018-02-23T20:19:30.524Z,20.40
2018-02-23T20:21:58.069Z,17.83
2018-02-23T20:24:25.599Z,18.65
2018-02-23T20:26:53.122Z,18.23
2018-02-23T20:29:21.402Z,16.98
2018-02-23T20:31:48.933Z,20.90
2018-02-23T20:34:16.476Z,16.37
2018-02-23T20:36:44.781Z,14.57
2018-02-23T20:39:12.300Z,23.77
2018-02-23T20:41:39.841Z,16.05
2018-02-23T20:44:07.355Z,19.67
2018-02-23T20:46:34.878Z,17.90
2018-02-23T20:49:03.211Z,15.20
2018-02-23T20:51:30.755Z,13.43
2018-02-23T20:53:58.946Z,18.87
2018-02-23T20:56:26.534Z,15.43
2018-02-23T20:58:54.069Z,16.35
2018-02-23T21:01:21.596Z,18.62
2018-02-23T21:03:49.128Z,20.45
2018-02-23T21:06:17.468Z,20.27
2018-02-23T21:08:45.937Z,16.58
2018-02-23T21:11:13.454Z,17.08
2018-02-23T21:13:40.977Z,14.52
2018-02-23T21:16:08.520Z,17.95
2018-02-23T21:18:36.063Z,16.40
2018-02-23T21:21:03.590Z,19.80
2018-02-23T21:23:31.876Z,12.82
2018-02-23T21:26:00.179Z,21.37
2018-02-23T21:28:27.710Z,14.52
2018-02-23T21:30:55.237Z,17.40
2018-02-23T21:33:23.548Z,18.87
2018-02-23T21:35:51.832Z,16.70
2018-02-23T21:38:19.360Z,20.17
2018-02-23T21:40:46.900Z,18.17
2018-02-23T21:43:14.440Z,16.27
2018-02-23T21:45:41.955Z,19.75
2018-02-23T21:48:10.289Z,17.35
2018-02-23T21:50:37.821Z,20.02
2018-02-23T21:53:05.360Z,23.35
2018-02-23T21:55:32.887Z,22.77
2018-02-23T21:58:00.431Z,22.48
2018-02-23T22:00:27.968Z,18.12
2018-02-23T22:02:55.509Z,21.80
2018-02-23T22:05:23.057Z,19.62
2018-02-23T22:07:50.575Z,18.25
2018-02-23T22:10:18.101Z,26.48
2018-02-23T22:12:45.628Z,22.58
2018-02-23T22:15:13.183Z,22.65
2018-02-23T22:17:41.482Z,21.25
2018-02-23T22:20:08.995Z,22.48
2018-02-23T22:22:36.532Z,21.12
2018-02-23T22:25:04.086Z,24.98
2018-02-23T22:27:31.604Z,22.42
2018-02-23T22:29:59.149Z,22.40
2018-02-23T22:32:26.645Z,23.70
2018-02-23T22:34:54.184Z,27.02
2018-02-23T22:37:22.478Z,18.77
2018-02-23T22:39:50.071Z,27.58
2018-02-23T22:42:17.576Z,22.75
2018-02-23T22:44:45.881Z,24.42
2018-02-23T22:47:13.402Z,19.55
2018-02-23T22:49:40.941Z,26.83
2018-02-23T22:52:08.478Z,22.00
2018-02-23T22:54:36.001Z,19.73
2018-02-23T22:57:04.287Z,23.60
2018-02-23T22:59:32.571Z,25.25
2018-02-23T23:02:00.115Z,25.33
2018-02-23T23:04:27.653Z,24.00
2018-02-23T23:06:55.167Z,20.77
2018-02-23T23:09:22.755Z,22.33
2018-02-23T23:11:50.267Z,19.95
2018-02-23T23:14:17.799Z,20.05
2018-02-23T23:16:45.318Z,20.90
2018-02-23T23:19:12.840Z,20.75
2018-02-23T23:21:41.118Z,20.70
2018-02-23T23:24:09.444Z,20.37
2018-02-23T23:26:37.028Z,23.92
2018-02-23T23:29:04.545Z,22.35
2018-02-23T23:31:32.128Z,20.98
2018-02-23T23:34:00.336Z,28.52
2018-02-23T23:36:27.894Z,29.05
2018-02-23T23:38:55.413Z,19.70
2018-02-23T23:41:22.954Z,23.80
2018-02-23T23:43:50.472Z,25.40
2018-02-23T23:46:18.761Z,20.35
2018-02-23T23:48:47.058Z,26.05
2018-02-23T23:51:14.598Z,21.65
2018-02-23T23:53:42.120Z,18.92
2018-02-23T23:56:09.653Z,20.27
2018-02-23T23:58:37.170Z,28.80
